createdAt,value
2018-11-29T00:00:41.010Z,19.70
2018-11-29T00:03:11.515Z,21.90
2018-11-29T00:05:41.380Z,21.20
2018-11-29T00:08:10.505Z,24.00
2018-11-29T00:10:39.575Z,22.17
2018-11-29T00:13:08.711Z,20.63
2018-11-29T00:15:38.818Z,21.50
2018-11-29T00:18:08.211Z,21.97
2018-11-29T00:20:37.583Z,23.07
2018-11-29T00:23:06.836Z,21.97
2018-11-29T00:25:35.999Z,21.07
2018-11-29T00:28:05.909Z,20.20
2018-11-29T00:30:34.975Z,22.37
2018-11-29T00:33:04.033Z,22.83
2018-11-29T00:35:33.180Z,23.47
2018-11-29T00:38:02.272Z,21.87
2018-11-29T00:40:31.345Z,22.00
2018-11-29T00:43:00.387Z,21.70
2018-11-29T00:45:29.581Z,22.17
2018-11-29T00:47:58.682Z,21.63
2018-11-29T00:50:27.720Z,21.90
2018-11-29T00:52:56.857Z,21.60
2018-11-29T00:55:28.015Z,17.60
2018-11-29T00:57:57.063Z,23.47
2018-11-29T01:00:26.463Z,22.60
2018-11-29T01:02:55.565Z,23.60
2018-11-29T01:05:24.819Z,23.13
2018-11-29T01:07:53.933Z,23.73
2018-11-29T01:10:22.976Z,22.60
2018-11-29T01:12:52.130Z,23.20
2018-11-29T01:15:21.856Z,23.37
2018-11-29T01:17:51.604Z,22.47
2018-11-29T01:20:21.724Z,23.17
2018-11-29T01:22:50.834Z,23.80
2018-11-29T01:25:19.967Z,24.57
2018-11-29T01:27:50.311Z,22.60
2018-11-29T01:30:20.655Z,24.40
2018-11-29T01:32:49.912Z,24.17
2018-11-29T01:35:20.943Z,22.80
2018-11-29T01:37:50.335Z,22.60
2018-11-29T01:40:21.586Z,23.03
2018-11-29T01:42:58.516Z,23.47
2018-11-29T01:45:27.663Z,25.60
2018-11-29T01:47:56.854Z,25.97
2018-11-29T01:50:26.527Z,25.67
2018-11-29T01:52:58.174Z,25.23
2018-11-29T01:55:27.287Z,22.37
2018-11-29T01:57:56.379Z,22.87
2018-11-29T02:00:25.507Z,22.70
2018-11-29T02:02:55.635Z,23.70
2018-11-29T02:05:24.149Z,20.80
2018-11-29T02:07:53.205Z,22.60
2018-11-29T02:10:27.852Z,23.60
2018-11-29T02:12:57.133Z,25.90
2018-11-29T02:15:26.602Z,23.50
2018-11-29T02:17:55.820Z,24.50
2018-11-29T02:23:38.303Z,24.77
2018-11-29T02:26:07.379Z,22.37
2018-11-29T02:28:36.413Z,22.67
2018-11-29T02:31:05.587Z,21.97
2018-11-29T02:33:34.707Z,24.60
2018-11-29T02:36:03.962Z,23.17
2018-11-29T02:38:33.299Z,24.23
2018-11-29T02:41:03.830Z,21.43
2018-11-29T02:43:34.915Z,25.10
2018-11-29T02:46:04.227Z,25.20
2018-11-29T02:48:33.446Z,23.47
2018-11-29T02:51:02.609Z,23.43
2018-11-29T02:53:31.774Z,24.53
2018-11-29T02:56:00.922Z,23.40
2018-11-29T02:58:30.160Z,24.50
2018-11-29T03:00:59.205Z,22.20
2018-11-29T03:03:28.308Z,23.80
2018-11-29T03:05:57.361Z,24.40
2018-11-29T03:08:26.395Z,22.37
2018-11-29T03:10:55.469Z,23.63
2018-11-29T03:13:24.503Z,24.00
2018-11-29T03:15:53.607Z,23.93
2018-11-29T03:18:22.656Z,26.30
2018-11-29T03:20:51.775Z,23.80
2018-11-29T03:23:20.840Z,25.10
2018-11-29T03:25:49.878Z,24.60
2018-11-29T03:28:18.897Z,25.33
2018-11-29T03:30:48.010Z,24.80
2018-11-29T03:33:17.090Z,25.30
2018-11-29T03:35:46.185Z,25.63
2018-11-29T03:38:15.273Z,26.00
2018-11-29T03:40:44.307Z,25.27
2018-11-29T03:43:13.343Z,25.60
2018-11-29T03:45:42.415Z,23.70
2018-11-29T03:48:11.665Z,24.90
2018-11-29T03:50:41.460Z,25.90
2018-11-29T03:53:10.586Z,24.27
2018-11-29T03:55:39.689Z,23.67
2018-11-29T03:58:08.821Z,26.47
2018-11-29T04:00:37.935Z,23.83
2018-11-29T04:03:07.640Z,24.17
2018-11-29T04:05:37.280Z,23.40
2018-11-29T04:08:06.401Z,23.43
2018-11-29T04:10:35.487Z,22.00
2018-11-29T04:13:04.578Z,26.33
2018-11-29T04:15:34.665Z,25.30
2018-11-29T04:18:03.904Z,23.90
2018-11-29T04:20:32.971Z,23.60
2018-11-29T04:23:02.279Z,23.83
2018-11-29T04:25:32.792Z,24.63
2018-11-29T04:28:02.097Z,25.87
2018-11-29T04:30:31.187Z,25.17
2018-11-29T04:33:00.299Z,25.47
2018-11-29T04:35:29.436Z,26.77
2018-11-29T04:37:58.571Z,24.47
2018-11-29T04:40:28.578Z,27.27
2018-11-29T04:42:57.818Z,27.50
2018-11-29T04:46:43.671Z,25.23
2018-11-29T04:49:12.833Z,24.97
2018-11-29T04:51:41.995Z,25.27
2018-11-29T04:54:11.381Z,28.07
2018-11-29T04:56:40.435Z,26.27
2018-11-29T04:59:09.862Z,27.70
2018-11-29T05:01:39.235Z,30.83
2018-11-29T05:04:08.338Z,27.47
2018-11-29T05:06:37.994Z,29.07
2018-11-29T05:09:11.297Z,27.93
2018-11-29T05:11:40.748Z,24.53
2018-11-29T05:14:09.840Z,27.63
2018-11-29T05:16:39.024Z,29.40
2018-11-29T05:19:08.835Z,27.93
2018-11-29T05:21:37.944Z,28.63
2018-11-29T05:24:07.192Z,26.33
2018-11-29T05:26:36.254Z,29.70
2018-11-29T05:29:05.468Z,31.10
2018-11-29T05:31:34.794Z,27.50
2018-11-29T05:34:04.196Z,27.90
2018-11-29T05:36:33.514Z,27.77
2018-11-29T05:39:02.587Z,29.13
2018-11-29T05:41:31.710Z,30.57
2018-11-29T05:44:00.835Z,29.37
2018-11-29T05:46:30.060Z,30.20
2018-11-29T05:48:59.400Z,29.53
2018-11-29T05:51:28.572Z,27.80
2018-11-29T05:53:58.604Z,28.17
2018-11-29T05:56:27.874Z,28.57
2018-11-29T05:58:57.421Z,29.97
2018-11-29T06:01:29.729Z,28.20
2018-11-29T06:03:59.849Z,28.93
2018-11-29T06:06:28.956Z,30.10
2018-11-29T06:08:59.087Z,29.57
2018-11-29T06:11:28.170Z,29.93
2018-11-29T06:13:57.281Z,28.30
2018-11-29T06:16:26.304Z,28.53
2018-11-29T06:18:55.998Z,31.10
2018-11-29T06:21:25.062Z,31.20
2018-11-29T06:23:54.286Z,29.40
2018-11-29T06:26:23.336Z,32.57
2018-11-29T06:28:52.407Z,29.80
2018-11-29T06:31:21.544Z,27.97
2018-11-29T06:33:50.908Z,29.60
2018-11-29T06:36:20.047Z,31.77
2018-11-29T06:38:49.127Z,32.97
2018-11-29T06:41:18.340Z,30.87
2018-11-29T06:43:47.464Z,30.93
2018-11-29T06:46:17.543Z,30.70
2018-11-29T06:48:46.651Z,31.83
2018-11-29T06:51:15.704Z,31.60
2018-11-29T06:53:50.101Z,30.80
2018-11-29T06:56:19.304Z,32.60
2018-11-29T06:58:48.373Z,32.93
2018-11-29T07:01:17.607Z,29.77
2018-11-29T07:03:49.081Z,28.63
2018-11-29T07:06:18.285Z,30.20
2018-11-29T07:08:47.386Z,31.10
2018-11-29T07:11:16.574Z,29.60
2018-11-29T07:13:45.864Z,32.10
2018-11-29T07:16:15.990Z,33.07
2018-11-29T07:18:45.490Z,31.17
2018-11-29T07:21:31.870Z,30.37
2018-11-29T07:24:00.948Z,29.63
2018-11-29T07:26:30.117Z,29.67
2018-11-29T07:28:59.364Z,30.47
2018-11-29T07:31:28.633Z,30.53
2018-11-29T07:33:58.584Z,32.00
2018-11-29T07:36:27.955Z,29.87
2018-11-29T07:38:57.098Z,31.13
2018-11-29T07:41:26.274Z,27.73
2018-11-29T07:43:55.399Z,31.20
2018-11-29T07:46:24.578Z,28.90
2018-11-29T07:48:53.692Z,27.43
2018-11-29T07:51:22.888Z,29.47
2018-11-29T07:53:52.032Z,30.33
2018-11-29T07:56:23.897Z,29.30
2018-11-29T07:58:53.379Z,30.53
2018-11-29T08:01:22.602Z,30.77
2018-11-29T08:03:52.075Z,32.60
2018-11-29T08:06:21.370Z,28.87
2018-11-29T08:08:51.399Z,30.70
2018-11-29T08:11:20.661Z,30.17
2018-11-29T08:13:50.052Z,29.90
2018-11-29T08:16:19.562Z,29.03
2018-11-29T08:18:48.675Z,28.43
2018-11-29T08:21:24.112Z,30.93
2018-11-29T08:23:53.477Z,29.70
2018-11-29T08:26:22.623Z,30.10
2018-11-29T08:28:53.125Z,31.20
2018-11-29T08:31:22.371Z,29.00
2018-11-29T08:33:52.074Z,27.33
2018-11-29T08:36:21.201Z,29.57
2018-11-29T08:38:50.295Z,32.57
2018-11-29T08:41:19.905Z,32.00
2018-11-29T08:43:49.151Z,31.07
2018-11-29T08:46:19.586Z,32.27
2018-11-29T08:48:48.669Z,30.57
2018-11-29T08:51:17.792Z,30.20
2018-11-29T08:53:46.893Z,27.87
2018-11-29T08:56:16.855Z,30.47
2018-11-29T08:58:46.363Z,27.10
2018-11-29T09:01:17.351Z,30.30
2018-11-29T09:03:47.386Z,28.83
2018-11-29T09:06:18.261Z,28.93
2018-11-29T09:08:49.057Z,30.73
2018-11-29T09:11:23.757Z,29.97
2018-11-29T09:14:04.545Z,29.57
2018-11-29T09:16:33.839Z,29.13
2018-11-29T09:19:03.195Z,29.07
2018-11-29T09:21:32.575Z,30.93
2018-11-29T09:24:01.774Z,28.70
2018-11-29T09:26:30.972Z,29.20
2018-11-29T09:29:00.271Z,30.73
2018-11-29T09:31:30.213Z,27.47
2018-11-29T09:34:00.019Z,27.87
2018-11-29T09:36:29.787Z,28.90
2018-11-29T09:39:01.481Z,28.40
2018-11-29T09:41:34.044Z,26.60
2018-11-29T09:44:05.087Z,28.53
2018-11-29T09:46:36.224Z,26.27
2018-11-29T09:49:45.781Z,28.60
2018-11-29T09:52:14.980Z,26.83
2018-11-29T09:55:05.817Z,28.60
2018-11-29T09:57:38.315Z,26.60
2018-11-29T10:00:37.752Z,27.27
2018-11-29T10:03:23.202Z,27.77
2018-11-29T10:05:52.326Z,26.97
2018-11-29T10:08:26.014Z,28.10
2018-11-29T10:10:51.850Z,26.23
2018-11-29T10:13:21.008Z,26.60
2018-11-29T10:15:50.088Z,25.23
2018-11-29T10:18:20.115Z,25.90
2018-11-29T10:20:50.257Z,27.77
2018-11-29T10:23:19.492Z,27.93
2018-11-29T10:25:48.638Z,28.07
2018-11-29T10:28:18.402Z,27.70
2018-11-29T10:30:58.666Z,178.80
2018-11-29T10:33:27.740Z,89.57
2018-11-29T10:35:59.384Z,26.80
2018-11-29T10:38:26.036Z,22.57
2018-11-29T10:40:55.430Z,26.47
2018-11-29T10:43:24.588Z,25.17
2018-11-29T10:45:53.764Z,47.93
2018-11-29T10:48:24.354Z,28.40
2018-11-29T10:57:18.675Z,30.67
2018-11-29T11:03:14.589Z,24.43
2018-11-29T11:08:44.592Z,25.10
2018-11-29T11:11:15.920Z,25.50
2018-11-29T11:13:45.070Z,25.50
2018-11-29T11:16:14.144Z,25.67
2018-11-29T11:18:43.249Z,26.00
2018-11-29T11:21:12.348Z,25.67
2018-11-29T11:23:41.494Z,23.80
2018-11-29T11:26:10.719Z,24.47
2018-11-29T11:28:40.798Z,23.70
2018-11-29T11:31:10.993Z,24.00
2018-11-29T11:33:40.100Z,23.27
2018-11-29T11:36:09.610Z,25.20
2018-11-29T11:38:40.677Z,23.03
2018-11-29T11:42:17.044Z,23.17
2018-11-29T11:44:46.170Z,22.67
2018-11-29T11:47:15.298Z,22.60
2018-11-29T11:49:44.351Z,24.90
2018-11-29T11:52:13.447Z,24.77
2018-11-29T11:54:42.714Z,24.17
2018-11-29T11:57:12.495Z,25.17
2018-11-29T11:59:42.473Z,23.80
2018-11-29T12:02:11.846Z,23.90
2018-11-29T12:04:48.597Z,23.57
2018-11-29T12:07:14.315Z,24.63
2018-11-29T12:09:43.561Z,24.20
2018-11-29T12:12:12.967Z,27.27
2018-11-29T12:14:48.635Z,24.60
2018-11-29T12:17:18.013Z,23.13
2018-11-29T12:19:47.435Z,24.03
2018-11-29T12:22:26.142Z,23.43
2018-11-29T12:24:58.387Z,23.73
2018-11-29T12:27:31.725Z,26.57
2018-11-29T12:30:03.461Z,25.97
2018-11-29T12:32:33.753Z,24.97
2018-11-29T12:35:04.201Z,24.57
2018-11-29T12:37:40.459Z,23.60
2018-11-29T12:40:13.275Z,23.83
2018-11-29T12:42:42.673Z,22.33
2018-11-29T12:45:13.323Z,22.27
2018-11-29T12:47:42.791Z,24.07
2018-11-29T12:50:16.420Z,24.57
2018-11-29T12:53:06.134Z,24.10
2018-11-29T12:56:16.167Z,22.80
2018-11-29T12:58:49.074Z,23.40
2018-11-29T13:01:16.867Z,23.17
2018-11-29T13:03:46.002Z,22.77
2018-11-29T13:06:17.937Z,23.67
2018-11-29T13:08:47.229Z,22.30
2018-11-29T13:11:16.915Z,23.30
2018-11-29T13:13:46.204Z,23.37
2018-11-29T13:16:15.863Z,22.50
2018-11-29T13:18:45.319Z,22.87
2018-11-29T13:21:14.795Z,23.47
2018-11-29T13:23:44.259Z,23.03
2018-11-29T13:26:13.565Z,24.17
2018-11-29T13:28:42.959Z,21.57
2018-11-29T13:33:53.399Z,23.47
2018-11-29T13:36:24.384Z,23.50
2018-11-29T13:38:54.872Z,21.83
2018-11-29T13:41:24.106Z,22.67
2018-11-29T13:43:54.925Z,21.20
2018-11-29T13:46:24.162Z,20.67
2018-11-29T13:48:53.371Z,21.77
2018-11-29T13:51:23.048Z,22.77
2018-11-29T13:54:01.197Z,21.53
2018-11-29T13:56:30.145Z,20.67
2018-11-29T13:58:59.339Z,21.33
2018-11-29T14:01:29.482Z,21.80
2018-11-29T14:03:58.693Z,20.50
2018-11-29T14:06:28.078Z,21.53
2018-11-29T14:08:57.829Z,20.07
2018-11-29T14:16:27.157Z,21.20
2018-11-29T14:18:56.311Z,18.77
2018-11-29T14:21:25.880Z,19.27
2018-11-29T14:23:58.914Z,18.63
2018-11-29T14:26:28.367Z,19.77
2018-11-29T14:29:00.467Z,20.60
2018-11-29T14:33:47.282Z,19.40
2018-11-29T14:36:23.050Z,17.80
2018-11-29T14:38:52.765Z,17.50
2018-11-29T14:41:22.503Z,17.53
2018-11-29T14:46:48.235Z,19.52
2018-11-29T14:50:30.692Z,18.30
2018-11-29T14:53:00.229Z,16.47
2018-11-29T14:55:30.190Z,17.33
2018-11-29T14:58:19.573Z,17.10
2018-11-29T15:00:44.740Z,14.93
2018-11-29T15:03:22.400Z,17.77
2018-11-29T15:05:51.941Z,17.60
2018-11-29T15:08:21.438Z,18.83
2018-11-29T15:10:51.130Z,16.23
2018-11-29T15:19:59.346Z,15.93
2018-11-29T15:24:29.678Z,16.43
2018-11-29T15:27:03.221Z,16.60
2018-11-29T15:29:32.734Z,17.03
2018-11-29T15:32:02.178Z,17.90
2018-11-29T15:35:04.053Z,17.33
2018-11-29T15:37:39.893Z,16.23
2018-11-29T15:41:08.378Z,15.70
2018-11-29T15:45:23.134Z,15.53
2018-11-29T15:47:54.090Z,17.33
2018-11-29T15:50:23.474Z,16.40
2018-11-29T15:52:53.032Z,15.80
2018-11-29T15:56:04.386Z,13.97
2018-11-29T15:58:33.754Z,14.50
2018-11-29T16:01:08.182Z,15.10
2018-11-29T16:03:38.603Z,15.77
2018-11-29T16:06:08.144Z,13.90
2018-11-29T16:08:37.912Z,15.10
2018-11-29T16:11:07.812Z,14.10
2018-11-29T16:13:37.071Z,16.20
2018-11-29T16:16:06.646Z,15.83
2018-11-29T16:18:36.848Z,15.17
2018-11-29T16:21:07.738Z,13.30
2018-11-29T16:23:37.246Z,14.87
2018-11-29T16:26:29.057Z,14.40
2018-11-29T16:28:58.674Z,15.23
2018-11-29T16:32:08.899Z,13.93
2018-11-29T16:37:41.562Z,13.13
2018-11-29T16:40:11.343Z,14.13
2018-11-29T16:42:40.869Z,12.87
2018-11-29T16:45:13.331Z,14.43
2018-11-29T16:47:44.196Z,13.80
2018-11-29T16:50:15.766Z,13.90
2018-11-29T16:52:45.168Z,13.40
2018-11-29T16:55:16.363Z,12.40
2018-11-29T16:57:59.124Z,12.80
2018-11-29T17:00:28.979Z,13.63
2018-11-29T17:02:58.207Z,14.27
2018-11-29T17:05:27.893Z,13.90
2018-11-29T17:07:57.085Z,13.57
2018-11-29T17:10:26.332Z,14.20
2018-11-29T17:12:59.636Z,14.60
2018-11-29T17:15:36.309Z,13.70
2018-11-29T17:18:46.313Z,11.40
2018-11-29T17:21:15.515Z,13.10
2018-11-29T17:23:44.728Z,14.27
2018-11-29T17:26:15.790Z,13.80
2018-11-29T17:28:45.090Z,12.97
2018-11-29T17:31:15.036Z,12.83
2018-11-29T17:33:45.229Z,13.00
2018-11-29T17:36:14.520Z,13.50
2018-11-29T17:38:44.201Z,13.07
2018-11-29T17:41:13.419Z,11.53
2018-11-29T17:43:42.540Z,13.00
2018-11-29T17:46:11.724Z,13.50
2018-11-29T17:48:40.856Z,13.27
2018-11-29T17:51:29.163Z,14.70
2018-11-29T17:53:58.328Z,11.93
2018-11-29T17:56:39.204Z,13.33
2018-11-29T17:59:08.738Z,13.67
2018-11-29T18:04:19.519Z,11.30
2018-11-29T18:06:48.722Z,12.83
2018-11-29T18:09:17.825Z,12.70
2018-11-29T18:11:46.935Z,12.90
2018-11-29T18:14:16.327Z,12.20
2018-11-29T18:16:45.617Z,11.77
2018-11-29T18:19:14.687Z,12.73
2018-11-29T18:21:44.630Z,12.67
2018-11-29T18:24:13.980Z,13.07
2018-11-29T18:26:43.284Z,13.20
2018-11-29T18:29:13.089Z,12.23
2018-11-29T18:32:06.918Z,11.80
2018-11-29T18:34:36.172Z,12.10
2018-11-29T18:37:05.723Z,12.40
2018-11-29T18:39:35.034Z,13.43
2018-11-29T18:42:04.370Z,13.80
2018-11-29T18:44:35.985Z,11.40
2018-11-29T18:47:11.224Z,14.03
2018-11-29T18:49:40.901Z,13.47
2018-11-29T18:52:36.829Z,12.00
2018-11-29T18:58:15.374Z,13.57
2018-11-29T19:00:52.212Z,11.87
2018-11-29T19:03:21.626Z,13.23
2018-11-29T19:06:05.594Z,12.43
2018-11-29T19:08:36.831Z,12.77
2018-11-29T19:11:33.044Z,12.40
2018-11-29T19:17:38.179Z,12.68
2018-11-29T19:20:15.679Z,11.60
2018-11-29T19:22:44.994Z,12.80
2018-11-29T19:25:20.144Z,12.40
2018-11-29T19:28:08.262Z,12.67
2018-11-29T19:30:46.889Z,11.73
2018-11-29T19:33:22.393Z,12.90
2018-11-29T19:36:09.890Z,10.87
2018-11-29T19:44:47.741Z,10.93
2018-11-29T19:47:40.571Z,11.60
2018-11-29T19:53:27.844Z,11.00
2018-11-29T19:56:01.892Z,12.13
2018-11-29T19:58:32.262Z,11.17
2018-11-29T20:04:14.147Z,10.30
2018-11-29T20:06:45.837Z,10.60
2018-11-29T20:09:15.689Z,11.50
2018-11-29T20:11:49.657Z,11.60
2018-11-29T20:14:58.209Z,11.80
2018-11-29T20:17:49.999Z,12.30
2018-11-29T20:20:19.337Z,11.97
2018-11-29T20:22:49.449Z,11.57
2018-11-29T20:25:20.694Z,10.60
2018-11-29T20:28:55.097Z,10.57
2018-11-29T20:31:38.593Z,12.33
2018-11-29T20:34:07.799Z,10.30
2018-11-29T20:36:37.117Z,11.00
2018-11-29T20:39:09.811Z,12.60
2018-11-29T20:41:41.583Z,10.30
2018-11-29T20:44:11.546Z,10.77
2018-11-29T20:53:09.700Z,12.00
2018-11-29T20:55:52.247Z,11.27
2018-11-29T20:58:21.583Z,11.53
2018-11-29T21:00:51.027Z,11.63
2018-11-29T21:03:20.149Z,12.00
2018-11-29T21:05:49.275Z,12.40
2018-11-29T21:08:18.353Z,9.93
2018-11-29T21:10:47.439Z,10.93
2018-11-29T21:13:16.733Z,11.60
2018-11-29T21:15:56.209Z,10.43
2018-11-29T21:18:55.581Z,11.23
2018-11-29T21:21:24.831Z,11.77
2018-11-29T21:23:54.012Z,12.03
2018-11-29T21:26:42.395Z,10.40
2018-11-29T21:29:12.423Z,11.73
2018-11-29T21:31:41.627Z,11.17
2018-11-29T21:34:31.938Z,10.63
2018-11-29T21:37:27.015Z,10.10
2018-11-29T21:39:56.193Z,10.60
2018-11-29T21:42:26.465Z,11.70
2018-11-29T21:44:56.275Z,10.80
2018-11-29T21:47:25.419Z,11.00
2018-11-29T21:49:55.363Z,11.00
2018-11-29T21:52:24.859Z,10.67
2018-11-29T21:54:54.425Z,11.27
2018-11-29T21:57:23.883Z,9.80
2018-11-29T21:59:53.719Z,11.13
2018-11-29T22:02:23.485Z,10.33
2018-11-29T22:04:53.652Z,10.67
2018-11-29T22:07:35.165Z,10.70
2018-11-29T22:10:04.869Z,10.00
2018-11-29T22:12:35.443Z,9.00
2018-11-29T22:15:05.879Z,8.70
2018-11-29T22:17:35.465Z,10.63
2018-11-29T22:23:14.121Z,9.95
2018-11-29T22:25:44.196Z,9.73
2018-11-29T22:28:14.307Z,10.00
2018-11-29T22:30:43.978Z,9.60
2018-11-29T22:33:13.579Z,9.60
2018-11-29T22:35:43.962Z,9.43
2018-11-29T22:39:16.301Z,9.80
2018-11-29T22:41:45.519Z,9.73
2018-11-29T22:44:17.887Z,9.13
2018-11-29T22:46:47.157Z,10.13
2018-11-29T22:49:42.695Z,9.30
2018-11-29T22:52:11.983Z,8.60
2018-11-29T22:54:41.376Z,9.40
2018-11-29T22:57:11.721Z,8.77
2018-11-29T22:59:41.768Z,9.20
2018-11-29T23:02:12.900Z,8.77
2018-11-29T23:04:44.891Z,8.50
2018-11-29T23:07:14.308Z,8.33
2018-11-29T23:09:44.799Z,9.80
2018-11-29T23:12:42.893Z,9.90
2018-11-29T23:15:13.058Z,8.73
2018-11-29T23:17:42.119Z,9.70
2018-11-29T23:27:39.032Z,8.23
2018-11-29T23:30:17.410Z,8.03
2018-11-29T23:33:22.468Z,7.43
2018-11-29T23:35:51.670Z,7.87
2018-11-29T23:38:21.070Z,8.17
2018-11-29T23:44:16.590Z,7.60
2018-11-29T23:46:46.519Z,8.07
2018-11-29T23:49:16.488Z,8.27
2018-11-29T23:51:46.127Z,7.67
2018-11-29T23:54:15.390Z,7.90
2018-11-29T23:56:44.909Z,8.30
2018-11-29T23:59:20.106Z,7.93
